Time;durP1;ratioP1;P1;durP2;ratioP2;P2;SDS_P1;SDS_P2;PMS_P1;PMS_P2;Temp;Humidity;BMP_temperature;BMP_pressure;BME280_temperature;BME280_humidity;BME280_pressure;Samples;Min_cycle;Max_cycle;Signal;HPM_P1;HPM_P2
2022/05/23 00:02:06;;;;;;;9.25;7.07;;;18.40;67.20;;;14.99;84.06;94779.91;5054518;28;20488;-49
2022/05/23 00:04:33;;;;;;;9.52;6.53;;;18.50;67.60;;;15.00;83.73;94773.44;5062431;28;20067;-48
2022/05/23 00:07:34;;;;;;;9.65;6.03;;;18.50;67.30;;;14.99;83.23;94785.28;5071018;28;20534;-48
2022/05/23 00:10:08;;;;;;;9.50;6.88;;;18.50;67.40;;;14.94;83.50;94776.59;5047333;28;20052;-47
2022/05/23 00:12:36;;;;;;;12.27;7.13;;;18.50;67.20;;;14.88;83.40;94781.28;5020194;28;20391;-47
2022/05/23 00:15:17;;;;;;;11.15;6.93;;;18.40;66.90;;;14.84;83.41;94772.31;5054420;28;20020;-48
2022/05/23 00:17:45;;;;;;;7.53;6.30;;;18.40;67.20;;;14.79;83.85;94772.44;5053111;28;20523;-50
2022/05/23 00:20:15;;;;;;;11.25;7.35;;;18.40;67.00;;;14.69;83.90;94770.81;5070392;28;20036;-50
2022/05/23 00:22:41;;;;;;;11.95;7.13;;;18.30;67.00;;;14.68;84.07;94765.78;5061654;28;20025;-48
2022/05/23 00:25:09;;;;;;;11.65;6.85;;;18.30;67.10;;;14.63;84.06;94765.91;5068892;28;21100;-48
2022/05/23 00:27:44;;;;;;;12.27;8.02;;;18.20;67.00;;;14.56;84.73;94766.38;5072586;28;20051;-50
2022/05/23 00:30:15;;;;;;;13.02;7.78;;;18.20;67.30;;;14.45;85.46;94754.31;5055076;28;20135;-48
2022/05/23 00:35:25;;;;;;;12.70;8.50;;;18.10;67.50;;;14.35;85.10;94742.78;5054236;28;20169;-49
2022/05/23 00:37:55;;;;;;;13.57;7.88;;;18.00;67.40;;;14.29;84.84;94744.00;5071001;28;20051;-49
2022/05/23 00:40:30;;;;;;;13.07;8.23;;;17.90;67.50;;;14.22;85.16;94759.72;5072891;28;20032;-48
2022/05/23 00:43:14;;;;;;;17.55;9.43;;;17.90;67.80;;;14.15;85.23;94761.25;5053587;28;20045;-49
2022/05/23 00:45:49;;;;;;;15.27;8.77;;;17.80;67.90;;;14.07;86.22;94758.22;5066265;28;20059;-47
2022/05/23 00:48:22;;;;;;;14.57;9.20;;;17.80;68.10;;;13.97;86.98;94750.44;5063145;28;20032;-47
2022/05/23 00:51:15;;;;;;;10.57;8.40;;;17.70;68.30;;;13.97;86.88;94752.31;5072675;28;20036;-47
2022/05/23 00:53:45;;;;;;;11.60;8.20;;;17.60;68.50;;;13.91;87.13;94745.50;5070835;28;20415;-49
2022/05/23 00:56:22;;;;;;;11.90;8.25;;;17.50;68.40;;;13.87;87.42;94754.16;5065044;28;20059;-48
2022/05/23 00:59:05;;;;;;;12.35;8.30;;;17.50;68.90;;;13.85;86.85;94742.97;5072495;28;20040;-51
2022/05/23 01:01:37;;;;;;;;;;;17.50;68.90;;;13.79;87.09;94738.84;5060964;28;20025;-52
2022/05/23 01:04:09;;;;;;;13.25;7.25;;;17.40;68.10;;;13.73;87.69;94745.41;5036073;28;20022;-48
2022/05/23 01:06:38;;;;;;;13.03;8.20;;;17.40;68.60;;;13.70;87.53;94737.19;5066427;28;20482;-47
2022/05/23 01:09:12;;;;;;;10.18;8.10;;;17.40;68.70;;;13.65;87.38;94730.84;5046946;28;20290;-48
2022/05/23 01:11:50;;;;;;;13.25;8.48;;;17.30;68.90;;;13.62;87.67;94731.47;5054946;28;20031;-48
2022/05/23 01:14:16;;;;;;;11.18;8.23;;;17.30;69.10;;;13.59;88.42;94732.06;5045182;28;20547;-51
2022/05/23 01:16:41;;;;;;;11.43;8.50;;;17.30;69.20;;;13.61;88.71;94723.75;5052207;28;20071;-54
2022/05/23 01:19:12;;;;;;;12.45;8.35;;;17.20;69.60;;;13.65;88.69;94728.19;5064950;28;20039;-50
2022/05/23 01:21:58;;;;;;;15.57;8.32;;;17.20;69.90;;;13.63;88.34;94724.22;5051753;28;20484;-50
2022/05/23 01:24:48;;;;;;;11.93;8.32;;;17.30;69.90;;;13.62;88.55;94723.44;5066281;28;20032;-50
2022/05/23 01:27:14;;;;;;;9.98;8.88;;;17.20;70.00;;;13.61;88.38;94724.53;5073304;28;20024;-51
2022/05/23 01:29:46;;;;;;;14.13;8.95;;;17.20;69.90;;;13.62;88.58;94723.44;5059359;28;20025;-50
2022/05/23 01:32:12;;;;;;;11.13;8.88;;;17.20;70.20;;;13.60;88.69;94719.47;5062273;28;20387;-50
2022/05/23 01:34:43;;;;;;;13.85;9.50;;;17.20;70.00;;;13.62;88.49;94719.97;5037971;28;20025;-50
2022/05/23 01:37:12;;;;;;;12.98;8.55;;;17.20;70.20;;;13.61;88.64;94715.72;5062959;28;20056;-48
2022/05/23 01:39:40;;;;;;;14.85;8.63;;;17.20;70.10;;;13.65;89.28;94708.66;5071629;28;20024;-47
2022/05/23 01:42:09;;;;;;;13.40;9.32;;;17.20;70.40;;;13.68;88.86;94715.28;5060224;28;20049;-51
2022/05/23 01:44:44;;;;;;;12.02;9.55;;;17.20;70.50;;;13.72;90.02;94711.69;5052696;28;20017;-48
2022/05/23 01:47:19;;;;;;;16.55;9.45;;;17.30;70.70;;;13.76;89.27;94717.25;5052738;28;20444;-48
2022/05/23 01:49:45;;;;;;;12.82;9.45;;;17.30;70.90;;;13.77;89.78;94716.16;5059706;28;20028;-48
2022/05/23 01:52:14;;;;;;;13.63;9.05;;;17.30;70.80;;;13.77;89.95;94711.56;5039848;28;20033;-47
2022/05/23 01:54:55;;;;;;;14.70;9.05;;;17.30;71.10;;;13.84;89.58;94713.81;5059896;28;20035;-52
2022/05/23 01:57:27;;;;;;;11.63;9.57;;;17.40;71.30;;;13.84;89.79;94714.59;5071936;28;20394;-50
2022/05/23 02:02:37;;;;;;;12.77;8.80;;;17.40;71.10;;;13.93;89.54;94714.66;5052879;28;20091;-51
2022/05/23 02:05:03;;;;;;;12.13;8.60;;;17.50;71.30;;;14.00;89.44;94723.03;5064603;28;20025;-51
2022/05/23 02:07:32;;;;;;;12.60;8.98;;;17.50;71.20;;;14.04;89.17;94718.69;5058246;28;20028;-51
2022/05/23 02:10:04;;;;;;;14.80;9.55;;;17.60;71.40;;;14.08;89.24;94722.31;5058149;28;20029;-48
2022/05/23 02:12:38;;;;;;;11.77;8.18;;;17.60;71.40;;;14.12;89.16;94709.09;5052201;28;20021;-48
2022/05/23 02:15:06;;;;;;;12.35;8.70;;;17.70;71.30;;;14.15;88.94;94711.16;5034711;28;20506;-48
2022/05/23 02:17:35;;;;;;;12.18;8.27;;;17.70;71.10;;;14.20;88.87;94712.94;5051547;28;20052;-49
2022/05/23 02:20:06;;;;;;;15.30;8.52;;;17.70;71.20;;;14.22;88.66;94713.38;5064537;28;20025;-48
2022/05/23 02:22:35;;;;;;;12.13;8.60;;;17.80;71.10;;;14.27;88.52;94707.91;5041706;28;20327;-47
2022/05/23 02:25:01;;;;;;;14.30;8.85;;;17.80;71.20;;;14.31;88.64;94716.91;5064376;28;20048;-49
2022/05/23 02:27:30;;;;;;;11.27;8.32;;;17.90;71.10;;;14.37;88.56;94706.84;5072241;28;20410;-48
2022/05/23 02:30:09;;;;;;;13.07;8.00;;;17.90;71.10;;;14.40;88.38;94695.50;5071728;28;20036;-50
2022/05/23 02:32:35;;;;;;;11.38;8.60;;;18.00;71.20;;;14.42;87.96;94687.97;5052035;28;20021;-51
2022/05/23 02:35:03;;;;;;;13.80;7.80;;;18.00;70.90;;;14.47;87.83;94675.19;5064352;28;20077;-49
2022/05/23 02:37:35;;;;;;;9.07;7.50;;;18.00;70.90;;;14.51;87.67;94676.19;5052081;28;20029;-49
2022/05/23 02:40:11;;;;;;;9.48;7.32;;;18.10;71.10;;;14.61;87.46;94671.66;5064168;28;20017;-47
2022/05/23 02:42:37;;;;;;;12.13;7.70;;;18.20;71.10;;;14.67;87.09;94675.78;5076088;22;20052;-52
2022/05/23 02:45:12;;;;;;;9.93;8.27;;;18.20;70.80;;;14.70;86.85;94669.78;5085583;28;20482;-54
2022/05/23 02:47:37;;;;;;;12.82;8.18;;;18.30;70.80;;;14.71;87.05;94668.69;5053956;28;20024;-53
2022/05/23 02:50:06;;;;;;;12.07;8.52;;;18.30;70.60;;;14.73;87.12;94672.63;5053335;28;20448;-56
2022/05/23 02:52:35;;;;;;;12.80;8.35;;;18.30;70.70;;;14.77;86.46;94676.25;5063656;28;20120;-55
2022/05/23 02:55:05;;;;;;;11.82;7.82;;;18.40;70.70;;;14.83;86.00;94687.63;5031271;28;20064;-56
2022/05/23 02:57:31;;;;;;;12.05;7.60;;;18.40;70.60;;;14.86;85.66;94686.22;5030026;28;20398;-56
2022/05/23 02:59:57;;;;;;;10.48;7.75;;;18.40;70.40;;;14.87;85.74;94690.47;5031125;28;20037;-56
2022/05/23 03:05:16;;;;;;;11.40;6.90;;;18.50;70.40;;;14.81;85.16;94690.59;5031517;28;20064;-53
2022/05/23 03:07:41;;;;;;;13.95;7.15;;;18.40;70.10;;;14.82;85.46;94672.63;5031058;28;20029;-54
2022/05/23 03:10:18;;;;;;;8.52;6.80;;;18.40;70.00;;;14.78;85.46;94640.28;5031142;28;20188;-55
2022/05/23 03:12:47;;;;;;;8.88;7.78;;;18.40;70.10;;;14.76;85.43;94642.50;5029678;28;20059;-55
2022/05/23 03:15:16;;;;;;;11.75;7.97;;;18.50;70.10;;;14.79;85.16;94649.13;5030617;28;20026;-54
2022/05/23 03:17:41;;;;;;;13.95;7.75;;;18.40;70.00;;;14.84;85.10;94648.97;5023226;28;20044;-55
2022/05/23 03:20:09;;;;;;;10.27;7.22;;;18.40;69.80;;;14.86;84.79;94652.16;5032920;28;20147;-55
2022/05/23 03:28:14;;;;;;;10.30;7.90;;;18.50;69.60;;;14.91;84.65;94643.94;5031709;28;20388;-55
2022/05/23 03:30:39;;;;;;;11.48;8.10;;;18.50;69.40;;;14.89;85.02;94631.97;5043626;28;20497;-53
2022/05/23 03:33:15;;;;;;;10.48;8.23;;;18.50;69.50;;;14.88;85.17;94622.31;5032920;28;20156;-56
2022/05/23 03:35:44;;;;;;;11.68;7.80;;;18.60;69.70;;;14.88;85.10;94639.19;5041596;28;20029;-52
2022/05/23 03:38:10;;;;;;;14.27;6.97;;;18.50;69.60;;;14.90;85.17;94655.78;5054211;28;20472;-54
2022/05/23 03:40:39;;;;;;;11.88;7.35;;;18.50;69.60;;;14.94;84.99;94654.03;5054005;28;20037;-55
2022/05/23 03:43:08;;;;;;;13.23;6.88;;;18.60;69.70;;;14.97;84.91;94666.03;5014771;28;1097404;-52
2022/05/23 03:45:36;;;;;;;9.13;6.43;;;18.60;69.60;;;14.97;84.81;94661.44;5055025;28;20028;-53
2022/05/23 03:48:04;;;;;;;13.40;6.93;;;18.60;69.50;;;14.98;84.86;94689.84;5037257;28;20029;-50
2022/05/23 03:50:32;;;;;;;9.00;6.30;;;18.60;69.50;;;14.97;84.64;94723.13;5037044;28;20024;-51
2022/05/23 03:52:58;;;;;;;9.68;6.18;;;18.60;69.50;;;14.88;84.84;94735.72;5021076;28;20049;-55
2022/05/23 03:55:24;;;;;;;10.93;6.72;;;18.60;69.50;;;14.93;85.01;94740.16;5037480;28;20509;-54
2022/05/23 03:57:53;;;;;;;10.50;6.82;;;18.60;69.50;;;14.88;84.77;94740.28;5020783;28;20062;-55
2022/05/23 04:00:34;;;;;;;10.80;7.60;;;18.60;69.50;;;14.88;84.94;94753.69;5020845;28;20043;-55
2022/05/23 04:03:06;;;;;;;9.07;7.00;;;18.60;69.60;;;14.83;85.01;94776.09;5036818;28;20053;-55
2022/05/23 04:05:31;;;;;;;9.30;7.57;;;18.60;69.60;;;14.74;85.71;94746.56;5054693;28;20021;-56
2022/05/23 04:07:57;;;;;;;11.60;7.90;;;18.50;69.50;;;14.75;85.72;94755.41;5054812;28;20399;-54
2022/05/23 04:10:23;;;;;;;12.18;8.13;;;18.50;69.60;;;14.74;85.88;94741.22;5054538;28;20039;-55
2022/05/23 04:12:48;;;;;;;11.27;8.32;;;18.50;69.60;;;14.77;85.80;94726.41;5036786;28;20037;-54
2022/05/23 04:15:18;;;;;;;13.18;7.97;;;18.50;69.70;;;14.80;85.63;94729.25;5054521;28;20391;-54
2022/05/23 04:17:43;;;;;;;9.95;7.57;;;18.50;69.70;;;14.82;85.60;94734.28;5054529;28;20064;-55
2022/05/23 04:20:10;;;;;;;12.13;7.78;;;18.50;69.70;;;14.84;85.58;94739.34;5036541;28;20095;-53
2022/05/23 04:22:48;;;;;;;11.77;7.20;;;18.60;69.70;;;14.86;85.59;94737.94;5055950;28;20028;-54
2022/05/23 04:25:34;;;;;;;14.05;7.18;;;18.60;69.80;;;14.90;85.31;94720.13;5038945;28;20576;-55
2022/05/23 04:28:03;;;;;;;12.55;8.02;;;18.60;69.70;;;14.91;85.44;94708.28;5034852;28;20025;-53
2022/05/23 04:30:31;;;;;;;14.30;7.72;;;18.60;69.60;;;14.90;85.50;94698.66;5044054;28;20033;-54
2022/05/23 04:35:53;;;;;;;12.68;7.55;;;18.60;69.60;;;14.89;85.66;94681.00;5041387;28;20402;-55
2022/05/23 04:38:19;;;;;;;11.70;7.80;;;18.70;69.70;;;14.91;85.75;94675.31;5036773;28;20041;-54
2022/05/23 04:40:45;;;;;;;10.18;6.85;;;18.60;69.70;;;14.94;85.72;94664.75;5053252;28;20064;-56
2022/05/23 04:43:17;;;;;;;11.40;7.57;;;18.70;69.90;;;15.00;85.73;94662.72;5065231;28;20040;-55
2022/05/23 04:45:46;;;;;;;10.30;7.13;;;18.70;70.00;;;15.06;85.84;94663.34;5052658;28;20383;-55
2022/05/23 04:50:58;;;;;;;9.68;7.90;;;18.80;70.30;;;15.19;84.94;94689.22;5074053;28;20070;-56
2022/05/23 04:53:24;;;;;;;11.05;8.15;;;18.90;70.10;;;15.28;84.67;94690.81;5073912;28;20407;-54
2022/05/23 04:55:59;;;;;;;14.85;10.05;;;19.00;70.10;;;15.37;84.58;94684.66;5073951;28;20059;-56
2022/05/23 04:58:28;;;;;;;22.73;18.30;;;19.00;70.00;;;15.41;84.71;94693.66;5069315;28;20063;-55
2022/05/23 05:01:12;;;;;;;18.80;14.32;;;19.10;69.70;;;15.37;83.88;94688.13;5052851;28;20059;-56
2022/05/23 05:03:41;;;;;;;17.40;11.73;;;19.20;69.60;;;15.41;83.84;94688.28;5073665;28;20053;-55
2022/05/23 05:06:17;;;;;;;14.50;10.85;;;19.30;69.30;;;15.49;83.41;94679.44;5055758;28;20074;-54
2022/05/23 05:08:43;;;;;;;14.05;9.40;;;19.40;69.20;;;15.54;83.06;94673.91;5073466;28;20505;-54
2022/05/23 05:11:14;;;;;;;13.05;9.00;;;19.40;68.80;;;15.59;82.87;94667.59;5073443;28;20123;-56
2022/05/23 05:13:43;;;;;;;11.80;9.02;;;19.50;68.70;;;15.69;82.94;94668.06;5052269;28;20033;-55
2022/05/23 05:16:09;;;;;;;14.88;9.68;;;19.60;68.50;;;15.79;82.61;94669.63;5072629;28;20387;-53
2022/05/23 05:18:38;;;;;;;10.73;8.65;;;19.70;68.20;;;15.86;82.21;94688.75;5073370;28;20032;-56
2022/05/23 05:21:09;;;;;;;13.85;9.65;;;19.80;68.00;;;15.92;82.36;94708.97;5051845;28;20074;-56
2022/05/23 05:23:35;;;;;;;13.57;8.75;;;20.00;67.80;;;16.02;82.02;94701.66;5049517;28;20024;-54
2022/05/23 05:26:05;;;;;;;14.25;8.77;;;20.10;67.60;;;16.13;81.65;94710.94;5052191;28;20411;-55
2022/05/23 05:28:34;;;;;;;13.20;8.80;;;20.20;67.30;;;16.22;81.59;94703.66;5051956;28;20032;-56
2022/05/23 05:31:32;;;;;;;11.68;9.25;;;20.30;67.20;;;16.36;81.33;94708.84;5062605;28;20081;-51
2022/05/23 05:34:12;;;;;;;13.18;8.95;;;20.40;66.90;;;16.42;80.78;94708.34;5056706;28;20029;-56
2022/05/23 05:36:43;;;;;;;16.25;9.80;;;20.50;66.60;;;16.52;80.39;94691.06;5053382;28;20580;-55
2022/05/23 05:39:09;;;;;;;12.10;8.57;;;20.70;66.30;;;16.68;80.38;94685.91;5035367;28;20040;-53
2022/05/23 05:42:09;;;;;;;16.00;8.30;;;20.80;66.10;;;16.87;80.46;94677.47;5052763;28;20033;-52
2022/05/23 05:44:48;;;;;;;14.88;8.95;;;20.90;66.00;;;17.11;80.12;94687.59;4971900;28;20109;-55
2022/05/23 05:47:19;;;;;;;10.60;8.18;;;21.10;65.70;;;17.26;78.34;94694.28;5050909;28;20117;-56
2022/05/23 05:50:04;;;;;;;12.32;7.55;;;21.30;65.50;;;17.38;77.63;94691.66;5054101;28;20060;-54
2022/05/23 05:52:34;;;;;;;15.07;7.28;;;21.40;65.00;;;17.48;77.28;94693.16;5053938;28;20024;-56
2022/05/23 05:55:04;;;;;;;13.65;7.85;;;21.50;64.70;;;17.58;77.20;94688.16;5072238;28;20020;-56
2022/05/23 05:57:36;;;;;;;11.05;7.07;;;21.70;64.50;;;17.61;76.63;94678.63;5070644;28;20078;-55
2022/05/23 06:00:06;;;;;;;12.23;7.43;;;21.70;64.10;;;17.67;77.13;94661.16;5064087;28;20029;-55
2022/05/23 06:02:33;;;;;;;11.88;8.00;;;21.80;63.90;;;17.71;76.28;94654.00;5070567;28;20055;-55
2022/05/23 06:05:01;;;;;;;11.95;8.57;;;21.90;63.60;;;17.67;76.20;94663.84;5070626;28;20119;-54
2022/05/23 06:12:58;;;;;;;10.20;7.50;;;22.10;62.70;;;17.67;76.25;94668.44;5060061;28;20063;-55
2022/05/23 06:15:24;;;;;;;12.23;7.47;;;22.10;62.50;;;17.74;76.16;94677.56;5068839;28;20028;-53
2022/05/23 06:17:52;;;;;;;10.13;6.82;;;22.20;62.40;;;17.82;76.40;94680.53;5057754;28;20048;-56
2022/05/23 06:20:19;;;;;;;14.55;6.82;;;22.20;62.40;;;17.93;75.98;94679.00;5062113;28;20024;-53
2022/05/23 06:22:45;;;;;;;8.60;6.70;;;22.30;62.20;;;17.99;75.45;94675.75;5033400;28;20035;-54
2022/05/23 06:25:15;;;;;;;12.07;6.88;;;22.40;62.00;;;18.12;74.75;94675.78;5064061;28;20020;-51
2022/05/23 06:27:41;;;;;;;10.70;6.85;;;22.60;61.60;;;18.26;74.33;94668.94;5037073;28;20028;-55
2022/05/23 06:30:17;;;;;;;13.00;6.90;;;22.70;61.30;;;18.40;73.92;94660.56;5048437;28;20022;-55
2022/05/23 06:32:43;;;;;;;9.60;6.05;;;22.90;60.90;;;18.53;73.62;94647.88;5055769;28;20450;-53
2022/05/23 06:35:13;;;;;;;10.13;6.82;;;23.00;60.50;;;18.61;73.44;94644.25;5070790;28;20032;-55
2022/05/23 06:37:43;;;;;;;17.40;6.97;;;23.20;60.20;;;18.70;73.66;94630.66;5062755;28;20095;-56
2022/05/23 06:40:14;;;;;;;9.68;6.50;;;23.40;60.00;;;18.85;72.90;94629.97;5063614;28;20055;-55
2022/05/23 06:42:45;;;;;;;10.30;6.20;;;23.50;59.60;;;18.98;71.92;94617.25;5050797;28;20041;-51
2022/05/23 06:45:11;;;;;;;16.48;6.25;;;23.70;59.90;;;19.03;71.66;94606.22;5050325;28;20029;-54
2022/05/23 06:47:38;;;;;;;16.95;6.40;;;23.80;58.80;;;19.14;71.59;94609.22;5018682;28;20112;-52
2022/05/23 06:50:04;;;;;;;14.85;6.10;;;24.00;58.60;;;19.10;71.65;94600.25;5030193;28;20086;-54
2022/05/23 06:52:30;;;;;;;9.38;5.70;;;24.10;58.20;;;19.27;71.50;94593.78;5049577;28;20028;-56
2022/05/23 06:54:58;;;;;;;12.57;6.38;;;24.30;58.00;;;19.49;71.54;94590.56;5068524;28;20055;-54
2022/05/23 06:57:30;;;;;;;17.33;7.03;;;24.40;57.80;;;19.71;70.27;94588.41;5060497;28;20127;-56
2022/05/23 06:59:58;;;;;;;10.07;5.70;;;24.60;57.60;;;19.86;69.38;94593.84;5037484;28;20027;-54
2022/05/23 07:02:27;;;;;;;14.90;6.05;;;24.80;57.20;;;20.17;69.45;94599.63;5061607;28;20415;-53
2022/05/23 07:13:18;;;;;;;10.15;5.53;;;26.10;55.40;;;21.86;63.26;94588.53;5055675;28;20136;-54
2022/05/23 07:15:48;;;;;;;12.43;5.88;;;26.60;54.90;;;22.31;61.73;94589.72;5054221;28;20037;-57
2022/05/23 07:18:19;;;;;;;8.70;5.68;;;27.00;54.30;;;22.78;58.73;94583.03;5038518;28;20075;-56
2022/05/23 07:20:45;;;;;;;11.60;5.82;;;27.50;53.10;;;23.16;58.13;94587.50;5057841;28;20048;-57
2022/05/23 07:23:15;;;;;;;12.65;6.38;;;27.90;52.60;;;23.37;56.48;94569.88;5055734;28;20391;-55
2022/05/23 07:25:41;;;;;;;9.07;5.72;;;28.30;51.60;;;23.70;55.62;94572.59;5054364;28;20503;-54
2022/05/23 07:28:07;;;;;;;13.18;5.82;;;28.70;50.80;;;24.11;55.20;94571.81;5060765;28;20035;-55
2022/05/23 07:30:35;;;;;;;9.38;5.55;;;29.10;50.10;;;24.50;54.05;94572.16;5061842;28;20060;-55
2022/05/23 07:33:11;;;;;;;9.52;6.10;;;29.50;49.20;;;24.74;53.38;94564.53;5054356;28;20033;-56
2022/05/23 07:35:42;;;;;;;10.40;6.55;;;29.80;48.50;;;25.11;53.43;94556.97;5055535;28;20029;-52
2022/05/23 07:38:11;;;;;;;21.55;5.95;;;30.20;48.20;;;25.51;52.51;94547.03;5054371;28;20067;-55
2022/05/23 07:40:37;;;;;;;9.88;6.18;;;30.60;47.30;;;25.67;51.08;94548.63;5055016;28;20488;-54
2022/05/23 07:43:05;;;;;;;10.30;5.95;;;30.90;46.40;;;25.64;50.54;94542.00;5055115;28;20083;-56
2022/05/23 07:45:34;;;;;;;8.52;5.85;;;31.20;45.50;;;25.99;49.86;94535.06;5055604;28;20060;-57
2022/05/23 07:47:59;;;;;;;11.43;5.93;;;31.50;45.00;;;26.28;49.24;94535.84;5071290;28;20029;-56
2022/05/23 07:50:38;;;;;;;13.10;6.57;;;31.80;44.20;;;26.86;48.09;94533.88;5053992;28;20116;-57
2022/05/23 08:01:20;;;;;;;11.25;5.20;;;33.40;41.50;;;27.82;45.83;94513.53;5053915;28;20114;-57
2022/05/23 08:03:48;;;;;;;10.20;5.75;;;33.60;41.10;;;28.18;44.98;94503.13;5074629;28;20063;-56
2022/05/23 08:06:17;;;;;;;10.90;5.97;;;33.90;40.50;;;28.46;44.96;94493.91;5074753;28;20111;-57
2022/05/23 08:08:43;;;;;;;12.13;6.55;;;34.20;39.80;;;28.69;43.57;94495.25;5074710;28;20021;-56
2022/05/23 08:11:13;;;;;;;14.32;5.75;;;34.60;39.30;;;28.97;43.36;94496.91;5074693;28;20170;-55
2022/05/23 08:13:47;;;;;;;9.82;5.72;;;34.90;38.50;;;29.31;42.27;94488.69;5053428;28;20036;-57
2022/05/23 08:16:13;;;;;;;13.73;6.60;;;35.30;37.90;;;29.44;41.92;94483.41;5054679;28;20621;-57
2022/05/23 08:18:42;;;;;;;9.25;5.70;;;35.60;37.20;;;29.63;41.14;94485.53;5074633;28;20036;-56
2022/05/23 08:21:16;;;;;;;14.30;6.22;;;35.90;36.40;;;30.01;40.16;94490.06;5056437;28;20163;-56
2022/05/23 08:23:42;;;;;;;12.80;5.35;;;36.10;36.00;;;30.29;39.75;94478.66;5062538;28;20082;-53
2022/05/23 08:26:11;;;;;;;11.40;5.57;;;36.30;35.70;;;30.58;38.75;94484.41;5069818;28;20372;-53
2022/05/23 08:28:37;;;;;;;10.55;5.82;;;36.60;35.00;;;31.01;36.91;94482.88;5053019;28;20051;-54
2022/05/23 08:31:18;;;;;;;9.95;5.20;;;37.20;34.10;;;30.98;35.96;94489.22;5054425;28;20591;-58
2022/05/23 08:34:06;;;;;;;9.15;5.45;;;37.40;33.20;;;30.91;36.71;94486.59;5054477;28;20159;-53
2022/05/23 08:36:40;;;;;;;15.68;6.38;;;37.40;32.70;;;31.36;35.36;94477.88;5054402;28;20033;-52
2022/05/23 08:39:12;;;;;;;11.57;5.65;;;37.70;32.10;;;31.41;36.32;94467.13;5054216;28;20036;-53
2022/05/23 08:41:40;;;;;;;;;;;37.90;31.70;;;31.59;34.90;94461.25;5054685;28;20036;-52
2022/05/23 08:44:32;;;;;;;14.77;5.70;;;37.90;32.70;;;31.73;35.14;94463.66;5053361;28;20003;-49
2022/05/23 08:47:14;;;;;;;9.35;5.25;;;38.10;31.40;;;31.63;38.13;94458.41;5054108;28;20029;-51
2022/05/23 08:49:45;;;;;;;12.35;6.85;;;38.00;31.40;;;31.60;39.26;94451.78;5053173;28;20191;-50
2022/05/23 08:52:24;;;;;;;10.43;6.68;;;38.10;31.80;;;31.34;39.91;94453.56;5053893;28;20040;-50
2022/05/23 08:55:19;;;;;;;10.98;7.28;;;38.00;32.00;;;30.80;40.92;94453.81;5053847;28;20099;-51
2022/05/23 08:58:24;;;;;;;10.15;6.88;;;37.90;31.70;;;30.88;40.79;94453.25;5053541;28;20503;-52
2022/05/23 09:01:18;;;;;;;8.82;6.95;;;37.80;32.20;;;30.93;41.05;94457.47;5053727;28;20032;-53
2022/05/23 09:04:33;;;;;;;11.77;6.97;;;37.70;32.50;;;30.78;40.30;94450.72;5055938;28;20025;-51
2022/05/23 09:07:01;;;;;;;9.63;7.38;;;37.60;32.60;;;30.55;41.32;94449.53;4993379;28;20033;-54
2022/05/23 09:09:32;;;;;;;13.35;6.90;;;37.50;32.40;;;30.60;40.60;94446.31;5049767;28;20036;-51
2022/05/23 09:12:15;;;;;;;11.80;6.40;;;37.50;32.30;;;30.59;41.51;94442.03;5052409;28;20060;-50
2022/05/23 09:14:47;;;;;;;10.85;6.60;;;37.30;32.40;;;30.76;40.89;94436.59;5055974;28;20362;-49
2022/05/23 09:17:44;;;;;;;8.27;6.40;;;37.40;32.50;;;30.96;40.83;94431.88;5073395;28;20029;-52
2022/05/23 09:23:30;;;;;;;11.73;7.90;;;37.70;32.10;;;30.78;39.68;94435.00;5073106;28;20032;-50
2022/05/23 09:25:59;;;;;;;13.38;7.10;;;37.70;31.70;;;30.55;40.47;94435.03;5038480;28;20529;-52
2022/05/23 09:28:43;;;;;;;20.13;7.78;;;37.60;31.50;;;30.75;40.50;94443.31;5058954;28;20033;-50
2022/05/23 09:31:54;;;;;;;8.82;7.10;;;37.50;31.90;;;30.48;40.13;94443.41;5052824;28;20452;-50
2022/05/23 09:34:43;;;;;;;9.65;6.95;;;37.30;31.90;;;29.60;40.99;94447.16;5051630;28;20545;-50
2022/05/23 09:37:28;;;;;;;11.48;6.97;;;36.90;31.80;;;29.09;42.28;94446.28;5051747;28;20048;-52
2022/05/23 09:39:58;;;;;;;10.45;6.47;;;36.40;31.80;;;29.08;42.36;94452.94;5051782;28;20036;-50
2022/05/23 09:48:27;;;;;;;10.13;7.35;;;36.50;32.10;;;29.40;42.34;94472.50;5051997;28;20078;-51
2022/05/23 09:51:10;;;;;;;12.35;7.03;;;36.50;32.10;;;29.64;41.52;94476.09;5052820;28;20037;-51
2022/05/23 09:53:52;;;;;;;9.82;6.72;;;36.60;32.00;;;30.20;41.54;94495.66;5052618;28;20033;-48
2022/05/23 09:56:34;;;;;;;12.77;7.72;;;37.00;32.10;;;30.14;41.29;94497.28;5051391;28;20033;-49
2022/05/23 09:59:38;;;;;;;13.32;6.97;;;37.20;31.70;;;30.66;39.49;94499.59;5052635;28;20029;-52
2022/05/23 10:02:16;;;;;;;10.07;7.32;;;37.50;31.40;;;30.88;38.99;94512.97;5008016;28;20041;-53
2022/05/23 10:04:45;;;;;;;9.88;6.70;;;38.10;30.80;;;31.36;38.65;94535.63;5052482;28;20037;-49
2022/05/23 10:07:38;;;;;;;11.25;6.85;;;38.70;30.30;;;31.47;38.16;94555.47;5052528;28;20373;-48
2022/05/23 10:10:21;;;;;;;16.15;8.27;;;39.00;30.00;;;30.85;39.46;94555.81;5052475;28;20057;-50
2022/05/23 10:12:48;;;;;;;14.88;8.27;;;38.90;29.70;;;30.72;39.72;94541.09;5051026;28;20032;-48
2022/05/23 10:15:29;;;;;;;8.73;7.35;;;38.90;29.60;;;30.97;40.03;94532.44;5052407;28;20438;-51
2022/05/23 10:18:04;;;;;;;;;;;39.00;29.60;;;30.56;38.26;94527.25;5065064;28;20029;-49
2022/05/23 10:20:42;;;;;;;9.80;6.53;;;38.90;29.40;;;30.36;38.46;94532.69;5053601;28;19959;-48
2022/05/23 10:23:29;;;;;;;11.02;6.72;;;38.90;28.90;;;30.33;39.14;94534.28;5051004;28;20067;-50
2022/05/23 10:26:27;;;;;;;11.93;6.28;;;38.70;28.80;;;30.56;39.12;94525.28;5052540;28;20024;-48
2022/05/23 10:29:01;;;;;;;11.45;6.40;;;38.60;29.00;;;30.45;39.45;94521.94;5052424;28;20383;-48
2022/05/23 10:31:53;;;;;;;9.57;6.47;;;38.60;29.10;;;30.60;39.13;94536.22;5050772;28;20037;-51
2022/05/23 10:34:41;;;;;;;;;;;38.60;29.10;;;30.49;38.14;94533.63;5052584;28;20104;-50
2022/05/23 10:37:26;;;;;;;9.60;5.57;;;38.60;29.10;;;30.74;37.45;94524.94;5052037;28;19924;-47
2022/05/23 10:43:29;;;;;;;10.02;5.85;;;39.00;28.20;;;31.15;36.97;94529.34;5058296;28;20063;-47
2022/05/23 10:46:04;;;;;;;8.18;6.28;;;38.90;28.20;;;30.94;37.91;94527.78;5071989;28;20029;-53
2022/05/23 10:49:20;;;;;;;11.55;5.90;;;39.20;28.00;;;31.03;37.60;94522.50;5072057;28;20107;-50
2022/05/23 10:52:18;;;;;;;9.60;5.53;;;39.20;28.00;;;31.33;36.77;94523.47;5071040;28;20551;-51
2022/05/23 10:55:17;;;;;;;10.35;5.55;;;39.30;28.20;;;31.08;37.17;94529.47;5072009;28;20112;-50
2022/05/23 10:58:36;;;;;;;13.55;5.00;;;39.40;27.80;;;31.27;37.17;94530.66;5072198;28;20025;-52
2022/05/23 11:01:28;;;;;;;11.15;5.30;;;39.40;27.90;;;31.02;36.74;94526.41;5070852;28;20063;-51
2022/05/23 11:04:33;;;;;;;7.90;4.38;;;39.50;27.70;;;30.86;36.80;94515.34;5071934;28;20068;-50
2022/05/23 11:06:59;;;;;;;7.50;4.43;;;39.50;27.40;;;31.40;34.18;94501.38;5071733;28;20167;-51
2022/05/23 11:09:43;;;;;;;4.30;2.95;;;39.40;27.00;;;31.75;31.87;94496.28;5053861;28;20531;-50
2022/05/23 11:12:45;;;;;;;6.38;2.92;;;39.60;26.20;;;31.94;28.95;94498.22;5071799;28;20081;-53
2022/05/23 11:15:33;;;;;;;7.93;3.25;;;39.70;25.30;;;32.07;28.72;94509.34;5065448;28;20185;-52
2022/05/23 11:18:15;;;;;;;9.65;2.92;;;39.80;24.80;;;32.00;28.34;94509.50;5049363;28;20029;-52
2022/05/23 11:20:41;;;;;;;;;;;39.90;24.50;;;32.23;27.96;94503.06;5066267;28;20032;-53
2022/05/23 11:23:41;;;;;;;4.90;2.75;;;40.00;24.90;;;32.06;28.98;94498.72;5036165;28;19909;-53
2022/05/23 11:26:42;;;;;;;8.05;2.72;;;40.00;24.30;;;30.98;29.29;94491.97;5017618;28;20032;-53
2022/05/23 11:35:13;;;;;;;8.15;3.15;;;38.30;24.70;;;30.53;31.49;94487.66;5068897;28;20074;-50
2022/05/23 11:37:48;;;;;;;5.32;2.67;;;37.80;25.10;;;30.71;31.42;94475.56;5040887;28;20021;-50
2022/05/23 11:41:00;;;;;;;6.15;2.35;;;37.40;25.40;;;30.25;31.89;94466.94;5071353;28;20426;-50
2022/05/23 11:43:27;;;;;;;6.82;2.72;;;37.00;25.60;;;29.99;32.73;94454.78;5050069;28;20037;-50
2022/05/23 11:46:11;;;;;;;4.75;2.55;;;36.80;25.90;;;30.28;31.96;94463.38;5050329;28;20123;-51